Time;durP1;ratioP1;P1;durP2;ratioP2;P2;SDS_P1;SDS_P2;PMS_P1;PMS_P2;Temp;Humidity;BMP_temperature;BMP_pressure;BME280_temperature;BME280_humidity;BME280_pressure;Samples;Min_cycle;Max_cycle;Signal;HPM_P1;HPM_P2
2023/09/20 00:07:36;;;;;;;4.15;0.90;;;;;;;16.04;54.04;99927.09;20908284;28;20192;-85
2023/09/20 00:17:39;;;;;;;2.67;0.68;;;;;;;16.29;53.19;99922.72;20906286;28;20223;-81
2023/09/20 00:27:45;;;;;;;4.72;0.90;;;;;;;16.32;53.73;99927.66;20905477;28;20219;-80
2023/09/20 00:37:47;;;;;;;4.60;1.10;;;;;;;16.19;54.19;99923.34;20909747;28;20632;-80
2023/09/20 00:47:55;;;;;;;2.90;0.90;;;;;;;15.87;55.07;99927.56;20900730;28;20231;-80
2023/09/20 00:57:59;;;;;;;2.55;1.00;;;;;;;16.03;55.31;99931.13;20912567;28;20232;-80
2023/09/20 01:08:03;;;;;;;4.15;0.90;;;;;;;16.43;54.29;99922.97;20923883;28;20559;-80
2023/09/20 01:18:07;;;;;;;5.95;0.77;;;;;;;16.40;54.35;99926.56;20921988;28;20592;-80
2023/09/20 01:28:10;;;;;;;1.52;0.77;;;;;;;16.21;54.83;99918.13;20921186;28;20249;-81
2023/09/20 01:38:12;;;;;;;10.07;1.67;;;;;;;16.54;54.39;99916.69;20919126;28;20230;-80
2023/09/20 01:48:15;;;;;;;3.28;1.02;;;;;;;16.16;56.06;99910.72;20919641;28;20257;-84
2023/09/20 01:58:17;;;;;;;3.58;1.23;;;;;;;16.27;55.31;99901.56;20918827;28;20219;-81
2023/09/20 02:08:21;;;;;;;3.67;1.05;;;;;;;16.32;55.44;99910.63;20910080;28;20197;-83
2023/09/20 02:18:23;;;;;;;2.15;0.93;;;;;;;16.35;56.01;99909.88;20910290;28;20555;-86
2023/09/20 02:28:27;;;;;;;4.97;1.20;;;;;;;15.84;57.48;99899.97;20911996;28;20192;-80
2023/09/20 02:38:29;;;;;;;3.90;1.00;;;;;;;16.17;56.95;99891.69;20916591;28;20222;-79
2023/09/20 02:48:34;;;;;;;5.03;1.50;;;;;;;15.53;58.99;99881.88;20916075;28;20532;-80
2023/09/20 02:58:37;;;;;;;4.10;1.00;;;;;;;16.00;57.50;99875.13;20908510;28;20251;-80
2023/09/20 03:08:44;;;;;;;3.83;1.15;;;;;;;15.65;59.18;99869.56;20912745;28;20489;-80
2023/09/20 03:18:46;;;;;;;6.20;1.63;;;;;;;15.57;59.90;99860.09;20913597;28;20227;-80
2023/09/20 03:28:49;;;;;;;4.97;1.08;;;;;;;15.83;59.26;99858.59;20912469;28;20591;-80
2023/09/20 03:38:51;;;;;;;4.75;1.52;;;;;;;15.46;60.26;99844.84;20910421;28;20215;-80
2023/09/20 03:48:54;;;;;;;2.30;0.90;;;;;;;15.65;59.29;99842.03;20927660;28;20561;-80
2023/09/20 03:58:56;;;;;;;3.47;0.75;;;;;;;15.52;59.78;99829.19;20924116;28;20219;-80
2023/09/20 04:09:01;;;;;;;3.03;0.95;;;;;;;15.33;60.40;99820.72;20903556;28;20590;-80
2023/09/20 04:19:04;;;;;;;5.63;0.98;;;;;;;15.29;60.67;99808.47;20916358;28;20216;-80
2023/09/20 04:29:07;;;;;;;5.53;1.40;;;;;;;15.35;60.76;99792.78;20893645;28;20196;-79
2023/09/20 04:39:11;;;;;;;5.27;1.10;;;;;;;15.54;60.25;99798.44;20916286;28;20223;-79
2023/09/20 04:49:14;;;;;;;4.82;1.27;;;;;;;15.27;60.93;99797.50;20901936;28;20231;-79
2023/09/20 04:59:16;;;;;;;1.37;1.20;;;;;;;15.61;60.01;99811.94;20908817;28;20220;-80
2023/09/20 05:09:19;;;;;;;4.80;1.42;;;;;;;15.14;62.01;99810.19;20895748;28;20287;-83
2023/09/20 05:19:22;;;;;;;2.03;1.40;;;;;;;15.48;60.79;99822.63;20906491;28;20223;-83
2023/09/20 05:29:25;;;;;;;2.47;1.10;;;;;;;15.32;61.70;99811.41;20901107;28;20245;-80
2023/09/20 05:39:28;;;;;;;3.25;1.20;;;;;;;15.55;61.21;99808.59;20917273;28;20220;-80
2023/09/20 05:49:31;;;;;;;2.85;1.35;;;;;;;15.73;60.15;99804.06;20919425;28;20249;-80
2023/09/20 05:59:33;;;;;;;4.18;1.67;;;;;;;15.58;61.01;99810.69;20931243;28;20333;-80
2023/09/20 06:09:36;;;;;;;1.90;1.00;;;;;;;15.91;60.57;99810.13;20902981;28;20207;-79
2023/09/20 06:19:38;;;;;;;3.42;1.35;;;;;;;15.83;61.15;99807.53;20909360;28;20226;-80
2023/09/20 06:29:42;;;;;;;3.85;1.00;;;;;;;15.64;61.99;99800.66;20902379;28;20208;-80
2023/09/20 06:39:44;;;;;;;2.08;0.73;;;;;;;16.09;60.36;99799.09;20907534;28;20281;-79
2023/09/20 06:49:47;;;;;;;1.67;0.90;;;;;;;16.10;60.54;99800.72;20910221;28;20231;-80
2023/09/20 06:59:52;;;;;;;2.85;0.77;;;;;;;16.37;59.61;99793.84;20888578;28;20494;-83
2023/09/20 07:09:57;;;;;;;4.75;1.35;;;;;;;16.51;59.34;99799.78;20894381;28;20208;-80
2023/09/20 07:19:58;;;;;;;3.58;0.60;;;;;;;16.44;59.39;99805.34;20883255;28;20215;-81
2023/09/20 07:30:05;;;;;;;2.17;0.80;;;;;;;16.02;60.21;99799.75;20907931;28;20195;-84
2023/09/20 07:40:08;;;;;;;1.80;0.80;;;;;;;16.62;58.39;99788.63;20910621;28;20303;-85
2023/09/20 07:50:12;;;;;;;2.92;1.25;;;;;;;16.95;58.12;99787.84;20911135;28;20600;-82
2023/09/20 08:00:15;;;;;;;2.72;0.90;;;;;;;17.18;56.83;99773.50;20912954;28;20600;-80
2023/09/20 08:10:18;;;;;;;1.63;0.95;;;;;;;17.92;54.53;99768.66;20913969;28;20254;-81
2023/09/20 08:20:21;;;;;;;1.98;0.70;;;;;;;17.26;56.14;99768.78;20912224;28;20230;-82
2023/09/20 09:01:25;;;;;;;0.55;0.55;;;;;;;18.24;53.36;99800.28;20924950;28;20636;-81
2023/09/20 09:11:28;;;;;;;2.42;0.57;;;;;;;17.86;54.16;99798.69;20914053;28;20211;-84
2023/09/20 09:21:30;;;;;;;1.08;0.43;;;;;;;18.37;53.50;99795.09;20919589;28;20223;-81
2023/09/20 09:31:36;;;;;;;0.93;0.50;;;;;;;17.95;54.55;99804.09;20909436;28;20203;-82
2023/09/20 09:41:42;;;;;;;1.23;0.50;;;;;;;18.83;53.23;99798.31;20914839;28;20227;-80
2023/09/20 09:51:46;;;;;;;2.60;0.65;;;;;;;18.05;54.53;99800.53;20909675;28;20509;-81
2023/09/20 10:01:50;;;;;;;3.08;0.77;;;;;;;18.48;53.74;99783.78;20911209;28;20227;-80
2023/09/20 10:11:53;;;;;;;1.10;0.50;;;;;;;19.05;52.72;99776.41;20916071;28;20604;-82
2023/09/20 10:22:02;;;;;;;3.47;0.65;;;;;;;18.58;53.63;99775.28;20904320;28;20227;-82
2023/09/20 10:32:14;;;;;;;2.58;0.50;;;;;;;18.57;53.49;99779.38;20907585;28;20682;-81
2023/09/20 10:42:16;;;;;;;2.42;0.50;;;;;;;18.16;55.05;99783.53;20909322;28;20215;-81
2023/09/20 10:52:57;;;;;;;3.30;0.40;;;;;;;18.48;54.31;99772.38;20911815;28;20243;-81
2023/09/20 11:02:59;;;;;;;1.90;0.63;;;;;;;18.67;54.24;99754.22;20874011;28;20277;-81
2023/09/20 11:13:06;;;;;;;1.30;0.82;;;;;;;19.51;51.42;99742.38;20905350;28;20199;-80
2023/09/20 11:23:09;;;;;;;1.40;0.60;;;;;;;18.93;52.05;99734.00;20907174;28;20605;-82
2023/09/20 11:43:41;;;;;;;2.35;0.60;;;;;;;19.23;50.52;99705.16;21337033;27;20570;-83
2023/09/20 11:53:44;;;;;;;5.68;0.43;;;;;;;19.56;49.70;99716.28;21312823;27;20721;-85
2023/09/20 12:03:47;;;;;;;1.30;0.40;;;;;;;19.69;49.03;99711.00;21316669;27;20631;-84
2023/09/20 12:13:49;;;;;;;1.15;0.50;;;;;;;20.16;47.81;99697.56;21309990;27;20271;-82
2023/09/20 12:23:52;;;;;;;2.22;0.50;;;;;;;20.44;47.25;99686.09;21302004;27;20222;-86
2023/09/20 12:33:53;;;;;;;3.28;0.52;;;;;;;20.02;48.02;99679.22;21316322;27;20610;-85
2023/09/20 12:43:56;;;;;;;1.63;0.75;;;;;;;20.59;46.08;99653.41;21308491;27;20554;-82
2023/09/20 12:53:58;;;;;;;2.05;0.80;;;;;;;20.84;44.04;99638.19;21254782;27;20213;-86
2023/09/20 13:04:01;;;;;;;2.15;0.73;;;;;;;20.93;43.38;99650.78;21247107;27;20197;-85
2023/09/20 13:14:03;;;;;;;2.00;0.70;;;;;;;20.04;45.86;99628.22;21250458;27;20205;-81
2023/09/20 13:24:08;;;;;;;2.38;0.65;;;;;;;20.95;44.71;99614.00;21247415;27;20457;-85
2023/09/20 13:34:14;;;;;;;2.00;0.73;;;;;;;21.32;43.80;99599.06;21231040;27;20597;-85
2023/09/20 13:44:19;;;;;;;2.78;0.82;;;;;;;21.54;44.13;99576.84;21249365;27;20553;-82
2023/09/20 13:54:21;;;;;;;1.75;0.80;;;;;;;21.12;44.04;99572.22;21241329;27;20251;-83
2023/09/20 14:04:25;;;;;;;1.73;0.80;;;;;;;21.37;44.20;99555.72;21246239;27;20219;-81
2023/09/20 14:14:27;;;;;;;5.47;0.85;;;;;;;21.23;44.30;99552.97;21246550;27;20224;-81
2023/09/20 14:24:30;;;;;;;2.35;0.70;;;;;;;21.17;43.71;99540.31;21238082;27;20504;-82
2023/09/20 14:34:32;;;;;;;1.13;0.63;;;;;;;22.25;42.22;99532.31;21236228;27;20324;-83
2023/09/20 14:44:35;;;;;;;1.65;1.00;;;;;;;21.34;42.71;99522.19;21226776;27;20482;-85
2023/09/20 14:54:38;;;;;;;3.63;1.10;;;;;;;21.12;43.02;99528.50;21220810;27;20232;-82
2023/09/20 15:04:43;;;;;;;5.47;3.10;;;;;;;21.55;41.16;99514.66;21236326;27;20193;-82
2023/09/20 15:14:46;;;;;;;3.08;1.40;;;;;;;21.45;41.69;99502.06;21233929;27;20308;-80
2023/09/20 15:24:52;;;;;;;2.70;1.15;;;;;;;21.36;41.58;99496.84;21235462;27;20251;-81
2023/09/20 15:34:54;;;;;;;2.75;1.30;;;;;;;21.30;42.13;99495.66;21235932;27;20341;-83
2023/09/20 15:44:57;;;;;;;12.38;6.57;;;;;;;21.12;42.86;99474.97;21230780;27;20585;-81
2023/09/20 15:54:59;;;;;;;1.50;0.90;;;;;;;20.71;43.31;99466.28;21229522;28;20643;-79
2023/09/20 16:05:02;;;;;;;9.32;6.32;;;;;;;21.91;41.60;99452.13;21232094;28;20501;-81
2023/09/20 16:15:05;;;;;;;3.95;1.30;;;;;;;21.01;43.89;99437.06;21238666;28;20516;-80
2023/09/20 16:25:09;;;;;;;2.47;1.05;;;;;;;20.73;44.53;99424.63;21239220;27;20500;-80
2023/09/20 16:35:11;;;;;;;2.20;1.10;;;;;;;20.91;44.41;99429.38;21249688;27;20225;-79
2023/09/20 16:45:15;;;;;;;2.17;0.73;;;;;;;20.80;44.71;99422.91;21249613;27;20195;-80
2023/09/20 16:55:17;;;;;;;2.30;0.80;;;;;;;20.64;44.10;99420.63;21249496;27;20260;-80
2023/09/20 17:05:21;;;;;;;1.83;0.90;;;;;;;20.90;43.15;99411.41;21247261;27;20197;-79
2023/09/20 17:15:27;;;;;;;1.73;0.93;;;;;;;20.70;43.35;99418.91;21236288;27;20221;-83
2023/09/20 17:25:30;;;;;;;1.67;0.88;;;;;;;20.47;43.79;99405.19;21230343;27;20301;-82
2023/09/20 17:35:33;;;;;;;5.07;2.15;;;;;;;20.56;44.59;99402.69;21228292;27;20226;-84
2023/09/20 17:45:36;;;;;;;2.80;1.30;;;;;;;19.96;45.92;99403.84;21236281;27;20656;-87
2023/09/20 17:55:39;;;;;;;4.07;1.70;;;;;;;20.04;45.63;99394.00;21243661;27;20231;-81
2023/09/20 18:05:43;;;;;;;3.72;1.92;;;;;;;19.97;45.59;99398.97;21240249;27;20194;-84
2023/09/20 18:15:46;;;;;;;3.30;1.27;;;;;;;20.00;46.86;99398.13;21231938;27;20214;-85
2023/09/20 18:25:49;;;;;;;3.00;1.35;;;;;;;19.79;47.76;99399.00;21234849;27;20185;-79
2023/09/20 18:35:51;;;;;;;1.70;0.73;;;;;;;19.58;48.09;99393.38;21227675;27;20225;-84
2023/09/20 18:45:54;;;;;;;4.53;1.00;;;;;;;19.38;48.99;99380.81;21226063;27;20220;-82
2023/09/20 18:55:56;;;;;;;3.78;1.23;;;;;;;19.37;49.45;99382.03;21233836;27;20225;-81
2023/09/20 19:06:01;;;;;;;3.22;0.88;;;;;;;19.30;49.27;99382.88;21229283;27;20201;-82
2023/09/20 19:16:03;;;;;;;1.90;1.05;;;;;;;19.12;50.38;99396.31;21226436;27;20229;-80
2023/09/20 19:26:06;;;;;;;5.07;1.00;;;;;;;19.09;50.67;99406.53;21234968;27;20677;-80
2023/09/20 19:36:09;;;;;;;2.78;0.88;;;;;;;19.08;50.19;99404.91;21236516;27;20221;-81
2023/09/20 19:46:13;;;;;;;1.23;0.98;;;;;;;19.49;48.87;99401.56;21240047;28;20197;-82
2023/09/20 19:56:18;;;;;;;2.95;1.20;;;;;;;19.38;49.73;99409.34;21232230;27;20256;-85
2023/09/20 20:06:23;;;;;;;2.20;0.80;;;;;;;19.31;50.20;99407.31;21227928;27;20208;-80
2023/09/20 20:16:26;;;;;;;1.65;0.90;;;;;;;18.89;50.27;99391.88;21233917;27;20248;-84
2023/09/20 20:26:29;;;;;;;2.63;0.95;;;;;;;18.85;50.19;99376.78;21253848;27;20193;-83
2023/09/20 20:36:31;;;;;;;1.27;0.80;;;;;;;18.95;49.55;99373.16;21235640;27;20232;-80
2023/09/20 20:46:35;;;;;;;2.08;0.90;;;;;;;18.76;49.99;99369.88;21245872;27;20243;-84
2023/09/20 20:56:39;;;;;;;1.38;1.05;;;;;;;18.68;50.33;99363.38;21237541;27;20251;-81
2023/09/20 21:06:44;;;;;;;2.15;1.33;;;;;;;18.74;49.75;99352.38;21246313;27;20304;-80
2023/09/20 21:16:46;;;;;;;1.45;1.05;;;;;;;18.79;50.02;99338.53;21245478;27;20225;-80
2023/09/20 21:26:49;;;;;;;1.02;0.80;;;;;;;18.50;50.79;99334.03;21246907;27;20197;-83
2023/09/20 21:36:50;;;;;;;3.10;1.15;;;;;;;18.29;51.26;99329.16;21247126;27;20231;-79
2023/09/20 21:46:54;;;;;;;1.77;0.93;;;;;;;18.34;50.61;99313.69;21251955;27;20255;-79
2023/09/20 21:56:55;;;;;;;4.47;1.42;;;;;;;18.43;50.07;99295.00;21250440;27;20261;-86
2023/09/20 22:07:00;;;;;;;4.60;1.80;;;;;;;18.50;49.65;99288.47;21230129;27;20615;-80
2023/09/20 22:17:03;;;;;;;3.88;1.60;;;;;;;18.40;49.67;99277.91;21245501;27;20225;-82
2023/09/20 22:27:06;;;;;;;2.63;1.30;;;;;;;18.55;48.92;99274.63;21238565;27;20239;-81
2023/09/20 22:37:08;;;;;;;1.08;0.75;;;;;;;18.70;48.72;99263.25;21231976;27;20231;-82
2023/09/20 22:47:11;;;;;;;2.08;1.23;;;;;;;18.63;48.10;99253.47;21201932;27;20278;-82
2023/09/20 22:57:21;;;;;;;1.23;1.02;;;;;;;18.48;48.24;99242.47;21214327;27;20244;-81
2023/09/20 23:07:24;;;;;;;2.13;0.80;;;;;;;18.19;48.50;99233.13;21241110;27;20188;-80
2023/09/20 23:17:26;;;;;;;1.75;0.70;;;;;;;18.78;47.02;99213.53;21215503;27;20220;-81
2023/09/20 23:27:29;;;;;;;2.47;0.68;;;;;;;18.63;47.68;99216.44;21220654;27;20199;-81
2023/09/20 23:37:31;;;;;;;1.58;0.90;;;;;;;18.25;47.99;99208.72;21279728;27;20220;-82
2023/09/20 23:47:34;;;;;;;0.82;0.75;;;;;;;18.84;46.60;99195.59;21326477;27;20212;-86
2023/09/20 23:57:37;;;;;;;3.75;1.10;;;;;;;18.57;47.15;99186.72;21331883;27;20300;-84
